Погода Мосинына неделю

Поморское воеводство, Польша

15 - 21 июля
  • 15июля
    Сегодня
    +17°
    +26°
    Ясно и безоблачно
    ВремяПогодаТемператураВлажностьДавлениеВетер, м/сВероятность осадков
    02:00Облачно с прояснениями+15°C96 %747 мм1.7 м/с2 %
    05:00Практически безоблачно+14°C97 %747 мм1.6 м/с2 %
    08:00Ясно и безоблачно+19°C87 %748 мм1.4 м/с2 %
    11:00Практически безоблачно+23°C57 %748 мм2.3 м/с2 %
    14:00Ясно и безоблачно+25°C49 %747 мм3.4 м/с2 %
    17:00Практически безоблачно+25°C52 %747 мм3.4 м/с7 %
    20:00Облачно с прояснениями+23°C69 %746 мм2.1 м/с11 %
    23:00Ясно и безоблачно+20°C72 %746 мм2.1 м/с2 %
  • 16июля
    Вторник
    +16°
    +29°
    Облачно с прояснениями
    ВремяПогодаТемператураВлажностьДавлениеВетер, м/сВероятность осадков
    02:00Ясно и безоблачно+18°C75 %746 мм2.1 м/с2 %
    05:00Облачно с прояснениями+17°C77 %746 мм2.1 м/с2 %
    08:00Практически безоблачно+22°C78 %746 мм2.6 м/с2 %
    11:00Небольшая облачность+26°C69 %745 мм3.7 м/с2 %
    14:00Облачно с прояснениями+28°C63 %744 мм4.6 м/с14 %
    17:00Небольшая облачность, возможен дождь с грозой+22°C81 %744 мм3.3 м/с59 %
    20:00Небольшая облачность, ливень+21°C90 %745 мм2.0 м/с53 %
    23:00Практически безоблачно+19°C94 %745 мм1.8 м/с18 %
  • 17июля
    Среда
    +13°
    +24°
    Практически безоблачно
    ВремяПогодаТемператураВлажностьДавлениеВетер, м/сВероятность осадков
    02:00Ясно и безоблачно+18°C96 %746 мм2.2 м/с3 %
    05:00Ясно и безоблачно+16°C95 %747 мм2.1 м/с2 %
    08:00Ясно и безоблачно+19°C79 %748 мм2.6 м/с2 %
    11:00Практически безоблачно+22°C61 %749 мм3.9 м/с4 %
    14:00Практически безоблачно+23°C48 %749 мм5.5 м/с12 %
    17:00Облачно с прояснениями+22°C55 %750 мм4.9 м/с15 %
    20:00Ясно и безоблачно+20°C68 %750 мм2.7 м/с4 %
    23:00Облачно с прояснениями+17°C84 %751 мм1.7 м/с2 %
  • 18июля
    Четверг
    +13°
    +23°
    Небольшая облачность
    ВремяПогодаТемператураВлажностьДавлениеВетер, м/сВероятность осадков
    02:00Ясно и безоблачно+15°C93 %751 мм2.1 м/с2 %
    05:00Ясно и безоблачно+14°C92 %752 мм1.9 м/с2 %
    08:00Небольшая облачность+17°C78 %752 мм2.7 м/с3 %
    11:00Небольшая облачность+20°C64 %753 мм3.1 м/с13 %
    14:00Небольшая облачность+23°C56 %753 мм4.1 м/с12 %
    17:00Облачно с прояснениями+22°C53 %752 мм3.7 м/с9 %
    20:00Ясно и безоблачно+20°C76 %752 мм2.2 м/с3 %
    23:00Облачно с прояснениями+15°C88 %752 мм1.4 м/с2 %
  • 19июля
    Пятница
    +13°
    +24°
    Ясно и безоблачно
    ВремяПогодаТемператураВлажностьДавлениеВетер, м/сВероятность осадков
    02:00Небольшая облачность+14°C93 %752 мм1.3 м/с2 %
    05:00Практически безоблачно+14°C93 %752 мм1.2 м/с2 %
    08:00Облачно с прояснениями+18°C76 %752 мм1.1 м/с2 %
    11:00Практически безоблачно+22°C59 %752 мм2.5 м/с8 %
    14:00Ясно и безоблачно+24°C53 %752 мм3.5 м/с16 %
    17:00Ясно и безоблачно+23°C49 %751 мм3.0 м/с16 %
    20:00Ясно и безоблачно+22°C69 %750 мм1.9 м/с5 %
    23:00Ясно и безоблачно+17°C82 %750 мм1.4 м/с2 %
Мы используем cookies
Соглашаюсь